Time;durP1;ratioP1;P1;durP2;ratioP2;P2;SDS_P1;SDS_P2;PMS_P1;PMS_P2;Temp;Humidity;BMP_temperature;BMP_pressure;BME280_temperature;BME280_humidity;BME280_pressure;Samples;Min_cycle;Max_cycle;Signal;HPM_P1;HPM_P2
2023/08/13 00:02:59;;;;;;;2.83;0.90;;;;;;;18.59;67.44;100092.00;10474887;28;20135;-58
2023/08/13 00:08:01;;;;;;;3.80;1.10;;;;;;;18.17;68.34;100094.03;10475365;28;20492;-58
2023/08/13 00:13:03;;;;;;;1.63;0.95;;;;;;;18.10;68.27;100106.09;10474716;28;20056;-58
2023/08/13 00:18:05;;;;;;;1.58;0.70;;;;;;;18.16;68.42;100099.41;10474904;28;20056;-58
2023/08/13 00:23:08;;;;;;;1.23;0.70;;;;;;;18.16;68.33;100094.97;10474694;28;20052;-59
2023/08/13 00:28:10;;;;;;;0.60;0.57;;;;;;;18.18;68.16;100093.03;10458535;28;20671;-58
2023/08/13 00:33:11;;;;;;;0.80;0.80;;;;;;;18.21;68.18;100100.75;10483206;28;20143;-59
2023/08/13 00:38:13;;;;;;;1.92;1.10;;;;;;;18.20;68.61;100108.84;10482370;28;20051;-60
2023/08/13 00:43:16;;;;;;;1.45;1.00;;;;;;;18.22;68.32;100112.19;10464213;28;20072;-59
2023/08/13 00:48:18;;;;;;;0.95;0.85;;;;;;;18.20;68.38;100119.41;10464213;28;20555;-59
2023/08/13 00:53:20;;;;;;;2.03;1.10;;;;;;;18.15;68.66;100117.13;10463076;28;20056;-59
2023/08/13 00:58:23;;;;;;;1.15;0.93;;;;;;;18.15;68.93;100124.22;10481527;28;20110;-60
2023/08/13 01:03:25;;;;;;;2.30;0.73;;;;;;;18.14;68.67;100104.84;10481325;28;20049;-60
2023/08/13 01:08:51;;;;;;;8.32;1.23;;;;;;;18.00;69.28;100093.81;10480773;28;20303;-59
2023/08/13 01:14:03;;;;;;;27.85;1.80;;;;;;;17.79;69.87;100105.31;10463169;28;20493;-60
2023/08/13 01:19:08;;;;;;;1.70;0.93;;;;;;;17.80;69.76;100100.84;10496295;28;20068;-59
2023/08/13 01:24:10;;;;;;;1.42;1.10;;;;;;;17.97;69.54;100107.31;10462173;28;20044;-59
2023/08/13 01:29:21;;;;;;;0.93;0.82;;;;;;;18.09;69.57;100106.25;10478655;28;20135;-59
2023/08/13 01:34:24;;;;;;;1.13;0.85;;;;;;;18.11;69.30;100106.94;10478700;28;20136;-59
2023/08/13 01:39:26;;;;;;;2.28;1.00;;;;;;;18.15;69.30;100101.25;10479269;28;20037;-59
2023/08/13 01:44:28;;;;;;;2.45;1.35;;;;;;;18.18;69.42;100102.81;10480097;28;20048;-59
2023/08/13 01:49:32;;;;;;;3.85;1.73;;;;;;;18.28;68.88;100098.41;10461384;28;20508;-60
2023/08/13 01:54:34;;;;;;;20.95;2.00;;;;;;;18.27;68.71;100102.84;10479576;28;20052;-60
2023/08/13 01:59:36;;;;;;;1.35;1.00;;;;;;;18.26;69.09;100103.81;10461277;28;20088;-59
2023/08/13 02:04:38;;;;;;;1.40;1.02;;;;;;;18.19;69.23;100107.09;10460995;28;20051;-59
2023/08/13 02:09:40;;;;;;;1.95;0.90;;;;;;;18.12;69.59;100104.16;10478160;28;20508;-59
2023/08/13 02:14:42;;;;;;;13.95;1.45;;;;;;;18.22;69.42;100098.94;10478797;28;20127;-59
2023/08/13 02:19:44;;;;;;;0.70;0.70;;;;;;;18.26;69.34;100103.81;10460001;28;20052;-59
2023/08/13 02:24:47;;;;;;;5.55;1.05;;;;;;;18.12;69.28;100104.16;10459882;28;20076;-59
2023/08/13 02:29:49;;;;;;;9.30;0.95;;;;;;;18.04;69.59;100103.16;10460355;28;20415;-59
2023/08/13 02:34:52;;;;;;;13.77;1.17;;;;;;;18.17;69.14;100103.75;10477457;28;20048;-60
2023/08/13 02:39:54;;;;;;;0.65;0.65;;;;;;;18.15;69.10;100097.75;10477722;28;20059;-61
2023/08/13 02:44:56;;;;;;;0.85;0.77;;;;;;;18.06;69.38;100095.91;10477304;28;20068;-59
2023/08/13 02:49:58;;;;;;;4.57;1.17;;;;;;;18.02;69.38;100099.81;10458325;28;20055;-59
2023/08/13 02:55:00;;;;;;;1.17;0.80;;;;;;;17.84;69.15;100100.47;10442514;28;20051;-59
2023/08/13 03:00:03;;;;;;;0.85;0.77;;;;;;;17.81;69.40;100095.41;10458580;28;20071;-59
2023/08/13 03:05:05;;;;;;;0.80;0.68;;;;;;;17.87;69.65;100096.72;10476840;28;20043;-59
2023/08/13 03:10:08;;;;;;;39.58;2.10;;;;;;;17.83;69.67;100090.84;10458547;28;20063;-59
2023/08/13 03:15:10;;;;;;;19.75;1.38;;;;;;;17.90;69.94;100080.56;10476356;28;20412;-59
2023/08/13 03:20:13;;;;;;;0.98;0.90;;;;;;;17.96;69.80;100089.75;10457839;28;20055;-59
2023/08/13 03:25:15;;;;;;;1.35;1.05;;;;;;;17.92;69.72;100078.63;10475399;28;20075;-59
2023/08/13 03:30:17;;;;;;;1.88;0.90;;;;;;;17.97;70.00;100084.34;10457060;28;20429;-59
2023/08/13 03:35:20;;;;;;;2.28;1.20;;;;;;;17.98;69.88;100074.59;10491362;28;20041;-59
2023/08/13 03:40:23;;;;;;;3.28;1.00;;;;;;;17.96;69.93;100079.16;10441634;28;20048;-59
2023/08/13 03:45:25;;;;;;;1.23;0.88;;;;;;;17.94;70.20;100084.59;10473686;28;20052;-59
2023/08/13 03:50:27;;;;;;;1.70;1.10;;;;;;;18.00;70.20;100080.56;10475897;28;20094;-59
2023/08/13 03:55:31;;;;;;;3.95;0.93;;;;;;;17.84;70.19;100089.03;10473845;28;20055;-59
2023/08/13 04:00:34;;;;;;;29.60;1.70;;;;;;;17.91;70.29;100086.69;10456718;28;20045;-59
2023/08/13 04:05:36;;;;;;;5.78;1.27;;;;;;;17.98;69.76;100090.47;10479402;28;20044;-59
2023/08/13 04:10:38;;;;;;;0.93;0.80;;;;;;;17.99;69.76;100085.06;10483538;28;20094;-59
2023/08/13 04:15:40;;;;;;;4.28;1.10;;;;;;;17.91;70.10;100092.84;10465693;28;20048;-59
2023/08/13 04:20:42;;;;;;;3.83;1.23;;;;;;;17.97;70.04;100094.09;10464493;28;20039;-59
2023/08/13 04:25:45;;;;;;;2.03;0.98;;;;;;;17.98;70.30;100111.63;10482981;28;20235;-60
2023/08/13 04:30:47;;;;;;;7.38;1.27;;;;;;;17.97;70.42;100104.69;10464833;28;20048;-60
2023/08/13 04:35:54;;;;;;;17.48;2.10;;;;;;;17.92;70.42;100104.22;10463734;28;20048;-59
2023/08/13 04:40:58;;;;;;;2.00;1.10;;;;;;;17.99;69.96;100110.69;10481220;28;20133;-59
2023/08/13 04:46:01;;;;;;;3.65;1.35;;;;;;;18.07;70.32;100105.53;10464503;28;20076;-59
2023/08/13 04:51:04;;;;;;;3.20;1.05;;;;;;;18.19;69.77;100102.69;10480095;28;20037;-59
2023/08/13 04:56:06;;;;;;;1.75;0.90;;;;;;;18.25;69.75;100096.00;10463886;28;20051;-59
2023/08/13 05:01:09;;;;;;;3.05;0.82;;;;;;;18.24;69.33;100094.34;10463422;28;20504;-58
2023/08/13 05:06:13;;;;;;;1.55;1.00;;;;;;;18.11;69.78;100104.31;10446533;28;20048;-60
2023/08/13 05:11:16;;;;;;;1.80;1.00;;;;;;;18.04;69.89;100108.44;10462654;28;20044;-59
2023/08/13 05:16:19;;;;;;;1.90;1.05;;;;;;;17.85;69.88;100090.72;10494922;28;20059;-58
2023/08/13 05:21:23;;;;;;;6.90;1.35;;;;;;;17.93;70.10;100096.19;10462340;28;20061;-59
2023/08/13 05:26:26;;;;;;;1.75;1.10;;;;;;;18.08;69.25;100101.91;10479743;28;20084;-59
2023/08/13 05:31:30;;;;;;;1.65;0.93;;;;;;;18.22;69.29;100107.69;10461766;28;20645;-59
2023/08/13 05:36:32;;;;;;;1.73;1.05;;;;;;;18.26;68.93;100095.06;10480460;28;20049;-60
2023/08/13 05:41:34;;;;;;;1.27;0.90;;;;;;;18.48;68.39;100108.03;10494733;28;20036;-59
2023/08/13 05:46:36;;;;;;;4.32;1.00;;;;;;;18.41;68.29;100109.56;10477940;28;20127;-59
2023/08/13 05:51:39;;;;;;;1.15;0.90;;;;;;;18.42;68.39;100104.09;10461022;28;20059;-59
2023/08/13 05:56:41;;;;;;;1.40;0.90;;;;;;;18.74;67.86;100089.78;10461449;28;20057;-59
2023/08/13 06:01:43;;;;;;;1.92;1.20;;;;;;;18.94;67.42;100104.69;10461254;28;20169;-59
2023/08/13 06:06:45;;;;;;;1.42;0.90;;;;;;;18.99;67.69;100108.59;10478794;28;20051;-59
2023/08/13 06:11:47;;;;;;;1.48;1.00;;;;;;;18.75;67.79;100105.53;10444723;28;20147;-59
2023/08/13 06:16:49;;;;;;;1.20;1.00;;;;;;;18.93;67.52;100103.84;10478884;28;20139;-59
2023/08/13 06:21:58;;;;;;;3.63;1.13;;;;;;;19.10;67.08;100102.34;10478181;28;20114;-59
2023/08/13 06:27:00;;;;;;;3.13;1.20;;;;;;;19.15;66.61;100116.88;10477613;28;20087;-59
2023/08/13 06:32:03;;;;;;;1.10;0.80;;;;;;;19.09;66.88;100098.88;10477536;28;20499;-60
2023/08/13 06:37:05;;;;;;;1.33;1.00;;;;;;;19.35;66.17;100113.19;10477971;28;20131;-60
2023/08/13 06:42:08;;;;;;;1.30;0.95;;;;;;;19.43;66.42;100123.94;10477684;28;20658;-58
2023/08/13 06:47:12;;;;;;;2.03;1.02;;;;;;;19.44;66.10;100120.28;10492768;28;20534;-60
2023/08/13 06:52:14;;;;;;;1.48;1.00;;;;;;;19.40;66.20;100126.00;10476789;28;20139;-60
2023/08/13 06:57:17;;;;;;;1.15;0.88;;;;;;;19.70;65.96;100119.66;10477049;28;20063;-61
2023/08/13 07:02:19;;;;;;;0.77;0.75;;;;;;;20.02;65.44;100109.50;10477034;28;20049;-60
2023/08/13 07:07:21;;;;;;;2.40;0.90;;;;;;;20.15;65.04;100113.47;10476715;28;20047;-59
2023/08/13 07:12:24;;;;;;;1.50;1.00;;;;;;;20.53;64.43;100120.38;10476737;28;20110;-60
2023/08/13 07:17:26;;;;;;;1.10;0.90;;;;;;;20.68;64.25;100112.75;10475980;28;20048;-59
2023/08/13 07:22:29;;;;;;;0.70;0.70;;;;;;;21.06;63.35;100113.25;10491435;28;20049;-59
2023/08/13 07:27:32;;;;;;;1.08;0.90;;;;;;;21.60;62.13;100103.34;10490563;28;20510;-59
2023/08/13 07:32:35;;;;;;;1.67;0.90;;;;;;;22.10;60.70;100111.44;10475675;28;20399;-59
2023/08/13 07:37:38;;;;;;;0.73;0.73;;;;;;;22.52;59.95;100118.41;10475157;28;20561;-60
2023/08/13 07:42:40;;;;;;;2.15;0.77;;;;;;;22.54;59.62;100119.06;10476183;28;20048;-60
2023/08/13 07:47:43;;;;;;;2.47;0.70;;;;;;;22.86;58.96;100109.50;10458078;28;20106;-60
2023/08/13 07:52:45;;;;;;;1.10;0.90;;;;;;;22.54;58.88;100097.75;10476020;28;20417;-60
2023/08/13 07:57:48;;;;;;;2.10;1.10;;;;;;;22.59;58.61;100095.44;10475442;28;20106;-60
2023/08/13 08:02:50;;;;;;;2.90;0.90;;;;;;;22.98;58.06;100110.81;10457246;28;20041;-60
2023/08/13 08:07:52;;;;;;;2.85;0.80;;;;;;;23.62;56.43;100097.41;10474162;28;20049;-59
2023/08/13 08:12:54;;;;;;;1.77;0.90;;;;;;;23.74;56.37;100088.03;10475078;28;20119;-60
2023/08/13 08:17:56;;;;;;;1.23;0.88;;;;;;;24.21;55.49;100086.19;10474716;28;20151;-60
2023/08/13 08:22:58;;;;;;;1.27;0.90;;;;;;;24.28;55.04;100087.19;10475098;28;20052;-60
2023/08/13 08:28:00;;;;;;;2.42;1.00;;;;;;;24.16;54.80;100088.53;10473653;28;20190;-60
2023/08/13 08:33:03;;;;;;;1.00;0.90;;;;;;;23.95;55.13;100093.66;10490680;28;20059;-60
2023/08/13 08:38:05;;;;;;;1.05;0.90;;;;;;;24.23;54.85;100088.69;10456541;28;20058;-60
2023/08/13 08:43:08;;;;;;;1.55;1.00;;;;;;;24.79;53.71;100085.69;10474409;28;20140;-60
2023/08/13 08:48:11;;;;;;;1.45;0.98;;;;;;;25.18;53.17;100077.50;10474552;28;20397;-60
2023/08/13 08:53:14;;;;;;;3.15;1.08;;;;;;;25.52;51.69;100077.00;10482529;28;20087;-60
2023/08/13 08:58:16;;;;;;;0.82;0.80;;;;;;;25.74;51.29;100076.91;10481674;28;20496;-60
2023/08/13 09:03:18;;;;;;;1.35;1.05;;;;;;;25.63;51.04;100072.00;10481503;28;20118;-60
2023/08/13 09:08:20;;;;;;;2.17;1.27;;;;;;;25.67;50.60;100067.94;10481668;28;20507;-60
2023/08/13 09:13:22;;;;;;;1.65;0.98;;;;;;;25.93;50.29;100062.13;10481101;28;20721;-60
2023/08/13 09:18:24;;;;;;;0.80;0.80;;;;;;;26.50;48.73;100056.81;10480578;28;20051;-60
2023/08/13 09:23:27;;;;;;;2.35;1.10;;;;;;;26.17;48.44;100052.94;10480825;28;20184;-60
2023/08/13 09:28:29;;;;;;;1.65;1.00;;;;;;;26.35;48.25;100043.47;10463356;28;20078;-60
2023/08/13 09:33:32;;;;;;;3.65;1.20;;;;;;;26.34;47.34;100040.97;10480191;28;20072;-60
2023/08/13 09:38:35;;;;;;;1.27;0.90;;;;;;;26.41;47.32;100042.72;10480368;28;20052;-59
2023/08/13 09:43:39;;;;;;;3.42;0.90;;;;;;;26.36;46.90;100038.94;10480159;28;20045;-59
2023/08/13 09:48:42;;;;;;;1.90;1.25;;;;;;;26.44;47.04;100042.34;10479458;28;20147;-59
2023/08/13 09:53:52;;;;;;;1.00;0.70;;;;;;;26.35;46.14;100042.63;10479074;28;20079;-59
2023/08/13 09:58:55;;;;;;;3.75;1.20;;;;;;;26.41;45.82;100050.75;10479266;28;20482;-59
2023/08/13 10:03:57;;;;;;;1.63;1.00;;;;;;;26.31;46.44;100041.34;10479020;28;20040;-59
2023/08/13 10:09:00;;;;;;;1.00;0.90;;;;;;;26.38;46.31;100051.16;10479271;28;20065;-59
2023/08/13 10:14:02;;;;;;;2.45;0.95;;;;;;;26.40;46.07;100034.84;10478751;28;20051;-59
2023/08/13 10:19:08;;;;;;;1.60;1.10;;;;;;;26.35;45.29;100032.75;10478538;28;20046;-59
2023/08/13 10:24:13;;;;;;;1.65;1.00;;;;;;;26.34;44.62;100033.78;10478009;28;20078;-59
2023/08/13 10:29:16;;;;;;;1.08;0.88;;;;;;;26.55;45.06;100032.94;10477801;28;20047;-59
2023/08/13 10:34:18;;;;;;;2.40;0.90;;;;;;;26.79;44.84;100039.81;10477787;28;20558;-59
2023/08/13 10:39:32;;;;;;;1.23;1.00;;;;;;;26.48;43.34;100027.53;10477783;28;20077;-59
2023/08/13 10:44:40;;;;;;;1.42;0.88;;;;;;;26.65;43.50;100031.63;10477450;28;20049;-59
2023/08/13 10:49:42;;;;;;;1.57;0.80;;;;;;;26.83;43.95;100019.59;10456860;28;20140;-59
2023/08/13 10:54:44;;;;;;;2.33;0.98;;;;;;;27.10;42.76;100016.91;10442323;28;20106;-59
2023/08/13 10:59:46;;;;;;;2.30;0.82;;;;;;;27.33;43.25;100019.38;10477062;28;20486;-59
2023/08/13 11:04:49;;;;;;;1.52;1.00;;;;;;;27.07;41.70;100027.22;10476714;28;20059;-60
2023/08/13 11:09:51;;;;;;;3.97;0.95;;;;;;;26.85;42.79;100023.75;10457604;28;20044;-59
2023/08/13 11:14:54;;;;;;;1.38;0.82;;;;;;;27.21;42.66;100019.09;10490813;28;20122;-59
2023/08/13 11:19:57;;;;;;;2.60;0.90;;;;;;;26.86;41.35;100019.19;10472761;28;20532;-59
2023/08/13 11:24:59;;;;;;;1.75;0.85;;;;;;;26.84;41.74;100027.44;10468419;28;20045;-59
2023/08/13 11:30:01;;;;;;;2.03;1.02;;;;;;;27.03;40.92;100024.09;10473332;28;20044;-60
2023/08/13 11:35:09;;;;;;;2.38;1.30;;;;;;;26.86;40.29;100021.88;10470917;28;20040;-60
2023/08/13 11:40:11;;;;;;;2.47;1.10;;;;;;;26.86;41.17;100017.34;10450498;28;20443;-60
2023/08/13 11:45:14;;;;;;;1.58;0.88;;;;;;;27.19;41.08;100015.78;10472032;28;20055;-59
2023/08/13 11:50:21;;;;;;;1.92;0.80;;;;;;;27.25;39.94;100014.16;10454656;28;20055;-59
2023/08/13 11:55:23;;;;;;;2.38;1.08;;;;;;;27.18;39.91;100003.38;10456544;28;20607;-59
2023/08/13 12:00:29;;;;;;;3.55;1.52;;;;;;;27.12;40.08;100004.13;10474413;28;20053;-59
2023/08/13 12:05:32;;;;;;;1.45;0.82;;;;;;;27.32;39.54;100002.41;10474903;28;20489;-59
2023/08/13 12:10:35;;;;;;;1.27;0.95;;;;;;;27.41;39.29;99997.72;10475631;28;20485;-59
2023/08/13 12:15:37;;;;;;;2.10;0.95;;;;;;;27.40;39.17;100004.94;10475455;28;20044;-59
2023/08/13 12:20:40;;;;;;;3.30;1.00;;;;;;;27.36;38.79;99990.25;10474511;28;20432;-59
2023/08/13 12:25:42;;;;;;;3.70;0.75;;;;;;;27.33;38.80;99987.97;10478597;28;20597;-60
2023/08/13 12:30:46;;;;;;;1.95;0.90;;;;;;;27.63;38.89;99993.91;10464302;28;20041;-59
2023/08/13 12:35:49;;;;;;;4.10;0.95;;;;;;;27.65;38.63;99982.97;10482940;28;20049;-59
2023/08/13 12:40:51;;;;;;;1.92;1.08;;;;;;;27.51;38.14;99979.38;10464458;28;20045;-59
2023/08/13 12:45:53;;;;;;;2.30;0.88;;;;;;;27.62;37.69;99975.31;10483026;28;20097;-59
2023/08/13 12:50:55;;;;;;;0.82;0.77;;;;;;;27.48;36.48;99966.38;10482316;28;20071;-59
2023/08/13 12:56:05;;;;;;;2.05;0.70;;;;;;;27.18;37.89;99979.19;10481494;28;20127;-60
2023/08/13 13:01:07;;;;;;;0.77;0.70;;;;;;;26.94;37.75;99974.25;10481995;28;20059;-60
2023/08/13 13:06:09;;;;;;;0.85;0.80;;;;;;;27.08;37.78;99983.22;10481583;28;20068;-59
2023/08/13 13:11:11;;;;;;;1.42;0.90;;;;;;;27.03;37.77;99989.22;10481230;28;20059;-59
2023/08/13 13:16:13;;;;;;;3.15;0.82;;;;;;;26.82;37.77;99981.19;10481438;28;20093;-60
2023/08/13 13:21:16;;;;;;;0.82;0.70;;;;;;;26.91;38.18;99984.56;10480835;28;20092;-59
2023/08/13 13:26:18;;;;;;;1.45;0.65;;;;;;;27.15;37.90;99976.09;10480588;28;20029;-60
2023/08/13 13:31:20;;;;;;;2.95;0.90;;;;;;;26.92;38.15;99972.78;10480581;28;20149;-60
2023/08/13 13:36:22;;;;;;;3.85;0.88;;;;;;;26.97;38.23;99971.22;10479367;28;20076;-60
2023/08/13 13:41:24;;;;;;;0.65;0.63;;;;;;;27.21;37.96;99970.75;10480375;28;20055;-60
2023/08/13 13:46:26;;;;;;;1.23;1.00;;;;;;;27.38;37.78;99961.34;10462238;28;20175;-60
2023/08/13 13:51:28;;;;;;;2.55;1.13;;;;;;;27.55;38.14;99955.63;10461753;28;20119;-60
2023/08/13 13:56:30;;;;;;;1.40;0.70;;;;;;;27.45;37.69;99948.78;10461888;28;20756;-60
2023/08/13 14:01:32;;;;;;;1.77;0.77;;;;;;;27.58;37.98;99939.97;10479794;28;20500;-60
2023/08/13 14:06:34;;;;;;;1.67;1.00;;;;;;;27.61;37.38;99938.69;10479063;28;20072;-60
2023/08/13 14:11:37;;;;;;;3.03;1.00;;;;;;;27.62;37.24;99937.69;10479008;28;20056;-60
2023/08/13 14:16:39;;;;;;;1.50;0.73;;;;;;;27.46;37.30;99930.81;10478730;28;20378;-60
2023/08/13 14:21:44;;;;;;;1.55;0.90;;;;;;;27.39;37.76;99929.94;10461527;28;20152;-60
2023/08/13 14:26:49;;;;;;;2.45;1.23;;;;;;;27.12;37.53;99922.75;10478376;28;20114;-60
2023/08/13 14:31:51;;;;;;;1.80;0.82;;;;;;;27.25;37.75;99917.47;10477842;28;20087;-59
2023/08/13 14:36:54;;;;;;;1.92;1.30;;;;;;;27.43;37.72;99923.16;10460289;28;20056;-60
2023/08/13 14:41:59;;;;;;;1.38;0.73;;;;;;;27.63;37.09;99921.34;10477474;28;20060;-60
2023/08/13 14:47:01;;;;;;;2.40;0.88;;;;;;;27.88;37.40;99922.50;10477191;28;20074;-60
2023/08/13 14:52:04;;;;;;;1.40;0.80;;;;;;;27.47;37.60;99929.78;10492748;28;20350;-60
2023/08/13 14:57:06;;;;;;;1.63;0.82;;;;;;;27.58;37.65;99923.84;10477012;28;20051;-60
2023/08/13 15:02:08;;;;;;;1.67;0.80;;;;;;;27.73;37.64;99918.34;10477118;28;20167;-60
2023/08/13 15:07:10;;;;;;;2.50;0.98;;;;;;;27.71;37.65;99912.31;10476844;28;20043;-60
2023/08/13 15:12:12;;;;;;;4.22;1.13;;;;;;;27.92;37.55;99893.34;10458902;28;20052;-60
2023/08/13 15:17:20;;;;;;;1.50;0.80;;;;;;;27.75;37.26;99887.53;10476545;28;20044;-60
2023/08/13 15:22:23;;;;;;;3.13;0.98;;;;;;;27.48;37.92;99878.53;10476308;28;20087;-60
2023/08/13 15:27:25;;;;;;;1.25;0.75;;;;;;;27.70;37.37;99883.75;10475669;28;20101;-60
2023/08/13 15:32:27;;;;;;;1.63;0.90;;;;;;;27.71;36.95;99875.50;10458534;28;20154;-60
2023/08/13 15:37:29;;;;;;;2.45;1.25;;;;;;;27.40;38.36;99862.59;10475912;28;20059;-60
2023/08/13 15:42:32;;;;;;;1.80;0.77;;;;;;;27.36;38.09;99863.22;10457982;28;20044;-57
2023/08/13 15:47:34;;;;;;;3.45;1.10;;;;;;;27.30;38.24;99862.13;10475649;28;20049;-59
2023/08/13 15:52:36;;;;;;;1.15;1.00;;;;;;;27.09;39.02;99867.59;10490223;28;20040;-60
2023/08/13 15:57:38;;;;;;;1.85;0.90;;;;;;;27.03;38.50;99873.78;10475495;28;20201;-60
2023/08/13 16:02:40;;;;;;;1.42;0.82;;;;;;;27.46;37.40;99861.78;10483888;28;20044;-59
2023/08/13 16:07:45;;;;;;;1.85;1.10;;;;;;;27.68;37.27;99858.97;10483813;28;20115;-60
2023/08/13 16:12:47;;;;;;;2.28;0.88;;;;;;;27.53;37.58;99861.81;10498558;28;20419;-60
2023/08/13 16:17:49;;;;;;;1.25;0.80;;;;;;;27.24;38.36;99868.31;10483265;28;20242;-59
2023/08/13 16:22:51;;;;;;;2.22;0.90;;;;;;;26.96;39.30;99856.78;10483151;28;20050;-59
2023/08/13 16:27:53;;;;;;;1.90;1.10;;;;;;;26.24;40.17;99858.16;10447987;28;20057;-60
2023/08/13 16:32:56;;;;;;;0.88;0.80;;;;;;;26.10;40.50;99854.50;10482606;28;20500;-60
2023/08/13 16:37:59;;;;;;;2.17;0.77;;;;;;;26.26;39.72;99848.84;10447022;28;20040;-60
2023/08/13 16:43:01;;;;;;;2.60;0.82;;;;;;;25.92;39.49;99842.59;10482374;28;20407;-59
2023/08/13 16:48:13;;;;;;;3.55;1.50;;;;;;;25.58;40.40;99836.06;10482085;28;20254;-60
2023/08/13 16:53:18;;;;;;;2.25;0.80;;;;;;;25.93;40.70;99839.69;10482064;28;20053;-59
2023/08/13 16:58:20;;;;;;;1.90;0.82;;;;;;;25.90;40.46;99835.53;10482195;28;20048;-59
2023/08/13 17:03:22;;;;;;;2.47;0.88;;;;;;;26.07;40.70;99835.31;10481776;28;20040;-59
2023/08/13 17:08:24;;;;;;;1.95;0.98;;;;;;;25.80;41.40;99820.81;10463120;28;20144;-59
2023/08/13 17:13:26;;;;;;;4.13;1.05;;;;;;;25.64;41.77;99821.06;10461391;28;20135;-59
2023/08/13 17:18:28;;;;;;;4.38;1.33;;;;;;;25.37;43.13;99830.66;10481320;28;20041;-59
2023/08/13 17:23:30;;;;;;;1.50;0.73;;;;;;;24.73;44.50;99828.81;10480997;28;20053;-58
2023/08/13 17:28:32;;;;;;;2.60;0.98;;;;;;;24.44;43.86;99828.75;10462560;28;20052;-59
2023/08/13 17:33:34;;;;;;;1.38;0.88;;;;;;;24.29;44.22;99824.22;10480257;28;20420;-59
2023/08/13 17:38:36;;;;;;;3.85;1.02;;;;;;;24.29;44.50;99831.38;10494989;28;20093;-60
2023/08/13 17:43:39;;;;;;;2.42;1.30;;;;;;;24.39;44.12;99833.81;10480212;28;20047;-60
2023/08/13 17:48:41;;;;;;;2.20;0.77;;;;;;;24.50;45.34;99836.88;10462159;28;20273;-60
2023/08/13 17:53:43;;;;;;;3.70;1.77;;;;;;;24.43;46.37;99837.78;10479250;28;20488;-60
2023/08/13 17:58:45;;;;;;;2.22;1.05;;;;;;;24.33;47.65;99834.56;10479860;28;20098;-60
2023/08/13 18:03:57;;;;;;;2.65;1.40;;;;;;;24.33;47.72;99842.56;10479367;28;20044;-60
2023/08/13 18:08:59;;;;;;;1.70;0.95;;;;;;;24.07;47.09;99846.47;10478937;28;20420;-59
2023/08/13 18:14:07;;;;;;;2.33;0.98;;;;;;;23.92;47.15;99850.88;10478765;28;20052;-60
2023/08/13 18:19:09;;;;;;;2.92;1.45;;;;;;;23.84;47.98;99853.63;10460987;28;20397;-60
2023/08/13 18:24:11;;;;;;;4.53;1.50;;;;;;;23.75;48.52;99849.34;10477912;28;20060;-60
2023/08/13 18:29:13;;;;;;;3.80;1.25;;;;;;;23.53;48.12;99844.00;10477897;28;20691;-59
2023/08/13 18:34:15;;;;;;;3.15;1.27;;;;;;;23.37;48.68;99839.56;10477952;28;20411;-59
2023/08/13 18:39:17;;;;;;;1.30;0.98;;;;;;;23.28;48.96;99848.63;10478286;28;20052;-59
2023/08/13 18:44:19;;;;;;;2.88;1.00;;;;;;;22.95;49.27;99850.59;10459549;28;20049;-60
2023/08/13 18:49:21;;;;;;;2.45;0.98;;;;;;;22.75;49.89;99849.34;10458861;28;20047;-60
2023/08/13 18:54:24;;;;;;;1.95;1.10;;;;;;;22.59;51.25;99852.84;10477131;28;20072;-59
2023/08/13 18:59:26;;;;;;;1.45;1.00;;;;;;;22.34;52.57;99861.88;10477448;28;20080;-59
2023/08/13 19:04:28;;;;;;;1.85;1.02;;;;;;;22.04;52.89;99864.38;10476615;28;20070;-60
2023/08/13 19:09:30;;;;;;;1.52;1.00;;;;;;;21.94;53.28;99867.19;10493250;28;20048;-59
2023/08/13 19:14:33;;;;;;;2.45;1.10;;;;;;;21.78;54.24;99859.19;10491551;28;20341;-59
2023/08/13 19:19:35;;;;;;;2.20;1.20;;;;;;;21.74;54.73;99877.31;10476991;28;20052;-59
2023/08/13 19:24:37;;;;;;;1.88;0.98;;;;;;;21.85;54.41;99877.00;10490676;28;20045;-59
2023/08/13 19:29:40;;;;;;;3.40;1.40;;;;;;;21.86;54.37;99875.19;10476732;28;20041;-59
2023/08/13 19:34:42;;;;;;;3.30;1.33;;;;;;;21.64;55.09;99876.63;10475618;28;20174;-59
2023/08/13 19:39:44;;;;;;;0.90;0.85;;;;;;;21.61;55.11;99881.44;10476428;28;20511;-59
2023/08/13 19:44:46;;;;;;;2.60;1.25;;;;;;;21.42;55.39;99874.56;10475562;28;20075;-58
2023/08/13 19:49:48;;;;;;;10.25;2.10;;;;;;;21.36;55.88;99879.69;10469484;28;20440;-58
2023/08/13 19:54:50;;;;;;;1.70;0.98;;;;;;;21.30;55.95;99883.81;10472458;28;20910;-59
2023/08/13 19:59:52;;;;;;;4.75;1.63;;;;;;;21.23;56.40;99892.59;10472717;28;20076;-59
2023/08/13 20:04:54;;;;;;;2.60;1.30;;;;;;;21.07;57.26;99880.06;10473992;28;20048;-59
2023/08/13 20:09:56;;;;;;;2.25;1.23;;;;;;;20.99;57.45;99880.88;10471477;28;20048;-59
2023/08/13 20:14:58;;;;;;;2.30;1.20;;;;;;;20.89;57.71;99880.16;10473341;28;20992;-59
2023/08/13 20:20:00;;;;;;;2.63;1.33;;;;;;;20.79;58.07;99881.25;10475202;28;20269;-58
2023/08/13 20:25:03;;;;;;;7.40;1.85;;;;;;;20.64;58.17;99878.34;10473876;28;20136;-59
2023/08/13 20:30:05;;;;;;;4.00;1.70;;;;;;;20.58;58.52;99892.25;10473816;28;20110;-59
2023/08/13 20:35:08;;;;;;;5.80;1.88;;;;;;;20.55;58.61;99894.34;10474800;28;20110;-60
2023/08/13 20:40:11;;;;;;;2.95;1.33;;;;;;;20.55;58.80;99895.19;10471644;28;20056;-59
2023/08/13 20:45:13;;;;;;;5.35;1.58;;;;;;;20.49;59.11;99894.97;10476634;28;20548;-59
2023/08/13 20:50:16;;;;;;;2.55;1.20;;;;;;;20.34;59.57;99896.56;10482296;28;20119;-59
2023/08/13 20:55:20;;;;;;;2.58;1.42;;;;;;;20.16;59.59;99901.88;10482152;28;20424;-59
2023/08/13 21:00:22;;;;;;;3.78;1.10;;;;;;;20.11;59.98;99896.19;10478635;28;24494;-59
2023/08/13 21:05:24;;;;;;;3.45;1.73;;;;;;;20.21;60.21;99899.59;10481363;28;20524;-59
2023/08/13 21:10:26;;;;;;;4.93;1.70;;;;;;;20.27;60.13;99906.94;10481614;28;20094;-59
2023/08/13 21:15:28;;;;;;;3.63;1.55;;;;;;;20.35;59.95;99909.66;10481156;28;20060;-59
2023/08/13 21:20:30;;;;;;;4.93;1.00;;;;;;;20.36;60.11;99902.53;10462466;28;20032;-59
2023/08/13 21:25:33;;;;;;;1.42;1.10;;;;;;;20.22;60.12;99909.22;10462959;28;20754;-59
2023/08/13 21:30:35;;;;;;;2.53;1.00;;;;;;;20.12;60.46;99898.69;10480780;28;20052;-59
2023/08/13 21:35:37;;;;;;;8.70;2.30;;;;;;;20.06;60.62;99898.47;10480816;28;20792;-60
2023/08/13 21:40:39;;;;;;;1.83;1.00;;;;;;;19.96;60.41;99897.72;10480389;28;20129;-60
2023/08/13 21:45:41;;;;;;;2.22;1.58;;;;;;;19.82;60.77;99900.91;10479915;28;20121;-60
2023/08/13 21:50:44;;;;;;;3.28;1.50;;;;;;;19.70;60.95;99905.56;10480465;28;20079;-60
2023/08/13 21:55:45;;;;;;;1.52;1.05;;;;;;;19.57;61.18;99907.72;10479454;28;20045;-60
2023/08/13 22:00:47;;;;;;;2.67;1.00;;;;;;;19.53;61.26;99913.47;10479005;28;20135;-60
2023/08/13 22:05:49;;;;;;;3.53;1.02;;;;;;;19.49;61.72;99920.91;10479271;28;20075;-60
2023/08/13 22:10:51;;;;;;;3.30;1.02;;;;;;;19.55;61.67;99917.66;10479366;28;20094;-60
2023/08/13 22:15:53;;;;;;;2.33;1.00;;;;;;;19.52;62.02;99914.47;10460619;28;20411;-60
2023/08/13 22:20:55;;;;;;;1.73;1.00;;;;;;;19.45;62.17;99914.22;10477823;28;20048;-60
2023/08/13 22:25:57;;;;;;;3.97;1.20;;;;;;;19.34;62.34;99925.88;10459369;28;20307;-59
2023/08/13 22:31:14;;;;;;;1.58;0.93;;;;;;;19.15;62.40;99911.88;10478075;28;20055;-59
2023/08/13 22:36:16;;;;;;;1.52;1.02;;;;;;;18.94;62.86;99929.78;10478061;28;20187;-60
2023/08/13 22:41:19;;;;;;;3.60;1.58;;;;;;;18.92;62.80;99926.44;10477944;28;20049;-59
2023/08/13 22:46:21;;;;;;;1.80;0.98;;;;;;;18.80;62.94;99944.34;10459963;28;20070;-60
2023/08/13 22:51:23;;;;;;;2.83;1.20;;;;;;;18.62;63.30;99940.75;10460931;28;20071;-60
2023/08/13 22:56:25;;;;;;;2.80;1.25;;;;;;;18.62;64.07;99940.75;10477087;28;20110;-60
2023/08/13 23:01:27;;;;;;;4.50;1.92;;;;;;;18.77;63.72;99939.31;10458466;28;20135;-60
2023/08/13 23:06:29;;;;;;;4.78;1.65;;;;;;;18.78;63.75;99940.16;10476825;28;20049;-60
2023/08/13 23:11:31;;;;;;;3.10;1.20;;;;;;;18.72;63.66;99944.22;10476592;28;20115;-60
2023/08/13 23:16:33;;;;;;;2.45;1.45;;;;;;;18.81;63.62;99942.53;10476741;28;20147;-60
2023/08/13 23:21:35;;;;;;;2.25;1.27;;;;;;;18.86;63.49;99948.22;10476549;28;20489;-60